createdAt,value
2018-08-18T00:00:46.734Z,22.07
2018-08-18T00:03:16.832Z,22.10
2018-08-18T00:05:46.529Z,21.99
2018-08-18T00:08:17.080Z,21.88
2018-08-18T00:10:46.908Z,21.79
2018-08-18T00:13:23.086Z,21.75
2018-08-18T00:15:53.437Z,21.75
2018-08-18T00:18:24.267Z,21.78
2018-08-18T00:20:54.581Z,21.65
2018-08-18T00:23:25.774Z,21.61
2018-08-18T00:25:57.382Z,21.54
2018-08-18T00:28:28.299Z,21.52
2018-08-18T00:31:01.629Z,21.46
2018-08-18T00:33:33.029Z,21.47
2018-08-18T00:36:05.792Z,21.40
2018-08-18T00:38:36.173Z,21.33
2018-08-18T00:41:09.243Z,21.40
2018-08-18T00:43:40.068Z,21.39
2018-08-18T00:46:11.658Z,21.33
2018-08-18T00:48:43.490Z,21.16
2018-08-18T00:51:14.252Z,21.26
2018-08-18T00:53:47.688Z,21.17
2018-08-18T00:56:18.724Z,21.05
2018-08-18T00:58:53.511Z,21.12
2018-08-18T01:01:23.373Z,21.07
2018-08-18T01:03:56.489Z,21.14
2018-08-18T01:06:28.603Z,21.22
2018-08-18T01:08:59.651Z,21.24
2018-08-18T01:11:33.151Z,21.20
2018-08-18T01:14:14.424Z,21.16
2018-08-18T01:16:50.515Z,21.23
2018-08-18T01:19:23.070Z,21.21
2018-08-18T01:21:59.448Z,21.26
2018-08-18T01:24:29.357Z,21.26
2018-08-18T01:27:04.582Z,21.27
2018-08-18T01:29:35.579Z,21.20
2018-08-18T01:32:08.350Z,21.08
2018-08-18T01:34:38.448Z,21.28
2018-08-18T01:37:19.445Z,21.34
2018-08-18T01:39:51.832Z,21.25
2018-08-18T01:42:25.232Z,21.27
2018-08-18T01:44:58.568Z,21.27
2018-08-18T01:47:29.487Z,21.19
2018-08-18T01:50:05.967Z,21.29
2018-08-18T01:52:39.424Z,21.16
2018-08-18T01:55:10.566Z,21.39
2018-08-18T01:57:41.204Z,21.47
2018-08-18T02:00:27.185Z,21.44
2018-08-18T02:02:59.073Z,21.56
2018-08-18T02:05:30.190Z,21.58
2018-08-18T02:08:01.157Z,21.62
2018-08-18T02:10:31.741Z,21.66
2018-08-18T02:13:05.510Z,21.71
2018-08-18T02:15:35.478Z,21.78
2018-08-18T02:18:05.708Z,21.77
2018-08-18T02:20:36.156Z,21.77
2018-08-18T02:23:06.105Z,21.83
2018-08-18T02:25:36.861Z,21.84
2018-08-18T02:28:07.413Z,21.90
2018-08-18T02:30:37.638Z,21.89
2018-08-18T02:33:07.984Z,21.88
2018-08-18T02:35:37.688Z,21.89
2018-08-18T02:38:07.915Z,21.97
2018-08-18T02:40:38.076Z,21.97
2018-08-18T02:43:18.260Z,22.02
2018-08-18T02:45:48.646Z,22.01
2018-08-18T02:48:20.679Z,21.98
2018-08-18T02:50:52.152Z,21.97
2018-08-18T02:53:26.931Z,21.82
2018-08-18T02:55:57.329Z,21.92
2018-08-18T02:58:27.313Z,21.85
2018-08-18T03:00:56.809Z,21.78
2018-08-18T03:03:27.088Z,21.84
2018-08-18T03:06:02.018Z,21.75
2018-08-18T03:08:32.013Z,21.75
2018-08-18T03:11:02.771Z,21.76
2018-08-18T03:13:33.910Z,21.75
2018-08-18T03:16:04.635Z,21.77
2018-08-18T03:18:54.849Z,21.81
2018-08-18T03:21:35.178Z,21.72
2018-08-18T03:24:26.476Z,21.76
2018-08-18T03:26:59.121Z,21.70
2018-08-18T03:29:33.382Z,21.70
2018-08-18T03:32:04.240Z,21.75
2018-08-18T03:34:34.851Z,21.82
2018-08-18T03:37:10.313Z,21.81
2018-08-18T03:39:40.976Z,21.85
2018-08-18T03:42:10.811Z,21.77
2018-08-18T03:44:52.527Z,21.79
2018-08-18T03:47:23.084Z,21.72
2018-08-18T03:49:53.255Z,21.70
2018-08-18T03:52:23.212Z,21.73
2018-08-18T03:54:53.020Z,21.74
2018-08-18T03:57:22.913Z,21.67
2018-08-18T03:59:56.092Z,21.71
2018-08-18T04:02:25.716Z,21.76
2018-08-18T04:05:00.803Z,21.77
2018-08-18T04:07:30.552Z,21.71
2018-08-18T04:10:09.461Z,21.66
2018-08-18T04:12:43.255Z,21.66
2018-08-18T04:15:13.033Z,21.67
2018-08-18T04:17:43.046Z,21.69
2018-08-18T04:20:14.157Z,21.66
2018-08-18T04:23:10.139Z,21.74
2018-08-18T04:25:41.596Z,21.68
2018-08-18T04:28:11.567Z,21.72
2018-08-18T04:30:41.275Z,21.67
2018-08-18T04:33:10.963Z,21.64
2018-08-18T04:35:42.202Z,21.53
2018-08-18T04:38:13.334Z,21.74
2018-08-18T04:40:45.604Z,21.77
2018-08-18T04:43:16.045Z,21.83
2018-08-18T04:45:48.766Z,21.84
2018-08-18T04:48:32.235Z,21.84
2018-08-18T04:51:10.151Z,21.88
2018-08-18T04:53:39.769Z,21.92
2018-08-18T04:56:11.328Z,21.93
2018-08-18T04:58:43.099Z,21.96
2018-08-18T05:01:13.424Z,22.08
2018-08-18T05:15:16.005Z,22.05
2018-08-18T05:17:46.055Z,22.13
2018-08-18T05:20:21.391Z,22.17
2018-08-18T05:22:51.319Z,22.20
2018-08-18T05:25:32.545Z,22.21
2018-08-18T05:28:04.841Z,22.26
2018-08-18T05:30:36.196Z,22.28
2018-08-18T05:33:07.402Z,22.32
2018-08-18T05:35:37.768Z,22.43
2018-08-18T05:38:12.648Z,22.51
2018-08-18T05:40:45.270Z,22.43
2018-08-18T05:43:15.313Z,22.48
2018-08-18T05:45:46.467Z,22.48
2018-08-18T05:48:17.020Z,22.53
2018-08-18T05:50:47.349Z,22.75
2018-08-18T05:53:20.654Z,22.82
2018-08-18T05:55:51.425Z,22.84
2018-08-18T05:58:21.600Z,22.92
2018-08-18T06:01:26.134Z,23.04
2018-08-18T06:04:01.709Z,23.19
2018-08-18T06:06:32.187Z,23.30
2018-08-18T06:09:04.619Z,23.33
2018-08-18T06:11:34.914Z,23.48
2018-08-18T06:14:04.804Z,23.62
2018-08-18T06:16:39.181Z,23.66
2018-08-18T06:19:09.850Z,23.72
2018-08-18T06:21:42.114Z,23.62
2018-08-18T06:24:12.346Z,23.79
2018-08-18T06:26:42.010Z,23.82
2018-08-18T06:29:12.403Z,23.96
2018-08-18T06:31:57.557Z,23.93
2018-08-18T06:34:30.628Z,24.06
2018-08-18T06:37:01.901Z,24.30
2018-08-18T06:39:49.194Z,24.37
2018-08-18T06:42:35.799Z,24.72
2018-08-18T06:45:13.244Z,24.65
2018-08-18T06:47:46.830Z,24.77
2018-08-18T06:50:21.724Z,24.79
2018-08-18T06:52:56.077Z,24.91
2018-08-18T06:55:26.503Z,24.86
2018-08-18T06:58:06.271Z,24.85
2018-08-18T07:00:43.348Z,24.84
2018-08-18T07:03:23.832Z,25.00
2018-08-18T07:05:59.240Z,25.10
2018-08-18T07:08:30.092Z,25.12
2018-08-18T07:11:01.201Z,25.08
2018-08-18T07:13:32.115Z,25.16
2018-08-18T07:16:12.614Z,25.28
2018-08-18T07:18:44.964Z,25.01
2018-08-18T07:21:21.519Z,25.02
2018-08-18T07:23:54.040Z,25.21
2018-08-18T07:26:27.656Z,25.33
2018-08-18T07:29:02.423Z,25.44
2018-08-18T07:31:34.877Z,25.50
2018-08-18T07:34:07.917Z,25.45
2018-08-18T07:36:40.682Z,25.28
2018-08-18T07:39:10.494Z,25.56
2018-08-18T07:41:41.705Z,25.82
2018-08-18T07:44:28.374Z,25.87
2018-08-18T07:47:15.153Z,26.32
2018-08-18T07:49:48.417Z,26.35
2018-08-18T07:52:23.765Z,26.42
2018-08-18T07:54:57.363Z,26.46
2018-08-18T07:57:35.225Z,26.52
2018-08-18T08:00:21.435Z,26.66
2018-08-18T08:02:55.439Z,26.84
2018-08-18T08:05:27.199Z,26.92
2018-08-18T08:07:58.486Z,26.96
2018-08-18T08:10:29.063Z,26.95
2018-08-18T08:13:06.194Z,27.04
2018-08-18T08:15:38.440Z,27.08
2018-08-18T08:18:16.443Z,27.04
2018-08-18T08:20:51.845Z,27.11
2018-08-18T08:23:26.169Z,27.21
2018-08-18T08:25:58.891Z,27.28
2018-08-18T08:28:33.063Z,27.33
2018-08-18T08:31:04.919Z,27.21
2018-08-18T08:33:44.707Z,27.27
2018-08-18T08:36:20.212Z,27.37
2018-08-18T08:39:00.224Z,27.40
2018-08-18T08:41:33.796Z,27.28
2018-08-18T08:44:05.493Z,27.32
2018-08-18T08:46:44.722Z,27.36
2018-08-18T08:49:15.566Z,27.34
2018-08-18T08:51:46.598Z,27.31
2018-08-18T08:54:20.802Z,27.18
2018-08-18T08:56:54.035Z,27.12
2018-08-18T08:59:26.136Z,27.14
2018-08-18T09:02:00.174Z,27.18
2018-08-18T09:04:36.835Z,27.10
2018-08-18T09:07:12.639Z,27.08
2018-08-18T09:09:48.370Z,27.12
2018-08-18T09:12:20.369Z,27.31
2018-08-18T09:14:58.521Z,27.52
2018-08-18T09:17:34.027Z,27.55
2018-08-18T09:20:07.761Z,27.81
2018-08-18T09:22:59.810Z,27.91
2018-08-18T09:25:33.415Z,28.08
2018-08-18T09:28:04.822Z,28.17
2018-08-18T09:30:39.890Z,28.30
2018-08-18T09:33:11.091Z,28.38
2018-08-18T09:35:56.535Z,28.54
2018-08-18T09:38:27.711Z,28.66
2018-08-18T09:40:57.229Z,28.63
2018-08-18T09:43:26.856Z,28.47
2018-08-18T09:45:58.467Z,28.39
2018-08-18T09:48:30.734Z,28.48
2018-08-18T09:51:02.248Z,28.60
2018-08-18T09:53:36.245Z,28.65
2018-08-18T09:56:05.878Z,28.42
2018-08-18T09:58:39.833Z,28.36
2018-08-18T10:01:10.487Z,28.54
2018-08-18T10:03:42.586Z,28.72
2018-08-18T10:06:14.328Z,28.83
2018-08-18T10:08:44.983Z,29.09
2018-08-18T10:11:18.977Z,29.20
2018-08-18T10:13:49.000Z,29.32
2018-08-18T10:16:18.828Z,29.22
2018-08-18T10:18:52.226Z,29.18
2018-08-18T10:21:22.990Z,29.21
2018-08-18T10:23:56.676Z,29.19
2018-08-18T10:26:27.042Z,29.36
2018-08-18T10:29:14.458Z,29.38
2018-08-18T10:31:51.575Z,29.43
2018-08-18T10:34:22.681Z,29.69
2018-08-18T10:36:58.982Z,29.78
2018-08-18T10:39:29.444Z,29.90
2018-08-18T10:42:11.903Z,29.90
2018-08-18T10:44:50.378Z,29.96
2018-08-18T10:47:26.661Z,30.12
2018-08-18T10:50:09.331Z,30.29
2018-08-18T10:52:50.702Z,30.40
2018-08-18T10:55:20.409Z,30.34
2018-08-18T10:58:04.859Z,30.14
2018-08-18T11:00:35.839Z,29.96
2018-08-18T11:03:09.496Z,29.98
2018-08-18T11:05:40.673Z,29.94
2018-08-18T11:08:15.514Z,30.03
2018-08-18T11:10:45.114Z,29.76
2018-08-18T11:13:17.159Z,29.62
2018-08-18T11:15:52.984Z,29.52
2018-08-18T11:18:24.403Z,29.51
2018-08-18T11:20:56.400Z,29.49
2018-08-18T11:23:28.031Z,29.52
2018-08-18T11:26:00.002Z,29.35
2018-08-18T11:28:29.849Z,29.47
2018-08-18T11:31:01.010Z,29.72
2018-08-18T11:33:40.952Z,29.79
2018-08-18T11:36:11.196Z,29.77
2018-08-18T11:38:41.971Z,29.96
2018-08-18T11:41:12.080Z,29.80
2018-08-18T11:43:47.703Z,29.85
2018-08-18T11:46:18.382Z,29.94
2018-08-18T11:48:48.890Z,29.80
2018-08-18T11:51:19.879Z,29.90
2018-08-18T11:53:59.894Z,30.22
2018-08-18T11:56:33.313Z,30.57
2018-08-18T11:59:12.276Z,30.61
2018-08-18T12:01:43.221Z,30.77
2018-08-18T12:04:13.416Z,30.73
2018-08-18T12:06:50.774Z,30.69
2018-08-18T12:09:25.219Z,30.76
2018-08-18T12:11:56.063Z,30.91
2018-08-18T12:14:26.086Z,30.83
2018-08-18T12:16:56.868Z,30.78
2018-08-18T12:19:27.281Z,30.88
2018-08-18T12:21:58.856Z,30.87
2018-08-18T12:24:29.385Z,30.74
2018-08-18T12:27:14.591Z,30.73
2018-08-18T12:29:46.827Z,30.66
2018-08-18T12:32:26.220Z,30.40
2018-08-18T12:35:02.608Z,30.31
2018-08-18T12:37:36.631Z,30.27
2018-08-18T12:40:06.768Z,30.19
2018-08-18T12:42:40.931Z,30.18
2018-08-18T12:45:13.459Z,30.11
2018-08-18T12:47:54.669Z,30.00
2018-08-18T12:50:31.131Z,29.80
2018-08-18T12:53:02.587Z,29.89
2018-08-18T12:55:34.394Z,29.84
2018-08-18T12:58:07.830Z,29.79
2018-08-18T13:00:38.638Z,29.67
2018-08-18T13:03:09.420Z,29.68
2018-08-18T13:05:39.267Z,29.59
2018-08-18T13:08:13.208Z,29.72
2018-08-18T13:10:45.456Z,29.92
2018-08-18T13:13:18.422Z,30.18
2018-08-18T13:15:49.966Z,30.25
2018-08-18T13:18:21.549Z,30.34
2018-08-18T13:21:02.344Z,30.54
2018-08-18T13:23:32.088Z,30.72
2018-08-18T13:26:02.658Z,30.95
2018-08-18T13:28:32.608Z,31.03
2018-08-18T13:31:03.094Z,31.27
2018-08-18T13:33:39.064Z,31.29
2018-08-18T13:36:10.854Z,31.28
2018-08-18T13:38:40.349Z,31.31
2018-08-18T13:41:11.225Z,31.34
2018-08-18T13:43:47.622Z,31.29
2018-08-18T13:46:18.697Z,31.41
2018-08-18T13:48:55.522Z,31.65
2018-08-18T13:51:25.455Z,31.76
2018-08-18T13:54:00.047Z,31.60
2018-08-18T13:56:35.457Z,31.18
2018-08-18T13:59:10.801Z,30.92
2018-08-18T14:01:43.972Z,30.75
2018-08-18T14:04:26.341Z,30.71
2018-08-18T14:07:01.701Z,30.61
2018-08-18T14:09:38.454Z,30.58
2018-08-18T14:12:18.389Z,30.62
2018-08-18T14:14:53.843Z,30.63
2018-08-18T14:17:27.865Z,30.65
2018-08-18T14:19:59.574Z,30.81
2018-08-18T14:22:32.874Z,30.89
2018-08-18T14:25:03.706Z,30.74
2018-08-18T14:27:37.498Z,30.88
2018-08-18T14:30:27.516Z,30.96
2018-08-18T14:33:00.349Z,30.89
2018-08-18T14:35:30.555Z,30.90
2018-08-18T14:38:02.641Z,31.05
2018-08-18T14:40:51.685Z,31.15
2018-08-18T14:43:28.959Z,31.10
2018-08-18T14:46:02.420Z,31.09
2018-08-18T14:48:34.265Z,30.88
2018-08-18T14:53:45.584Z,30.09
2018-08-18T14:56:18.019Z,29.94
2018-08-18T15:03:07.454Z,29.84
2018-08-18T15:05:39.043Z,29.57
2018-08-18T15:08:09.831Z,29.52
2018-08-18T15:10:43.588Z,29.48
2018-08-18T15:13:13.953Z,29.49
2018-08-18T15:15:44.903Z,29.69
2018-08-18T15:18:19.220Z,29.77
2018-08-18T15:20:49.665Z,29.89
2018-08-18T15:23:25.154Z,29.99
2018-08-18T15:25:57.883Z,30.31
2018-08-18T15:28:29.944Z,30.56
2018-08-18T15:31:00.869Z,30.73
2018-08-18T15:33:30.842Z,30.96
2018-08-18T15:36:01.330Z,31.14
2018-08-18T15:38:43.371Z,31.20
2018-08-18T15:41:14.928Z,31.31
2018-08-18T15:43:46.499Z,31.30
2018-08-18T15:46:17.638Z,31.24
2018-08-18T15:48:47.646Z,31.30
2018-08-18T15:51:20.987Z,31.42
2018-08-18T15:53:56.989Z,31.51
2018-08-18T15:56:27.481Z,31.59
2018-08-18T15:58:59.701Z,31.61
2018-08-18T16:01:33.428Z,31.59
2018-08-18T16:04:04.391Z,31.46
2018-08-18T16:06:34.424Z,31.23
2018-08-18T16:09:09.403Z,31.01
2018-08-18T16:11:40.896Z,30.75
2018-08-18T16:14:11.155Z,30.82
2018-08-18T16:16:57.068Z,30.88
2018-08-18T16:19:28.112Z,30.98
2018-08-18T16:21:59.947Z,31.12
2018-08-18T16:24:35.285Z,31.22
2018-08-18T16:27:07.543Z,31.06
2018-08-18T16:29:38.639Z,30.89
2018-08-18T16:32:17.385Z,30.78
2018-08-18T16:34:48.607Z,30.70
2018-08-18T16:37:19.126Z,30.73
2018-08-18T16:39:50.302Z,30.50
2018-08-18T16:42:21.439Z,30.51
2018-08-18T16:44:53.636Z,30.59
2018-08-18T16:47:23.335Z,30.66
2018-08-18T16:49:55.115Z,30.62
2018-08-18T16:52:25.068Z,30.71
2018-08-18T16:54:54.790Z,30.70
2018-08-18T16:57:25.892Z,30.53
2018-08-18T16:59:56.431Z,30.30
2018-08-18T17:02:35.476Z,30.19
2018-08-18T17:05:07.300Z,29.96
2018-08-18T17:07:37.770Z,29.84
2018-08-18T17:10:08.332Z,29.80
2018-08-18T17:12:40.721Z,29.65
2018-08-18T17:15:11.921Z,29.51
2018-08-18T17:17:44.127Z,29.27
2018-08-18T17:20:15.134Z,29.09
2018-08-18T17:22:46.487Z,28.97
2018-08-18T17:25:16.384Z,28.81
2018-08-18T17:27:55.122Z,28.53
2018-08-18T17:30:39.569Z,28.35
2018-08-18T17:33:15.697Z,28.22
2018-08-18T17:35:59.731Z,28.20
2018-08-18T17:38:30.527Z,28.08
2018-08-18T17:41:00.692Z,27.94
2018-08-18T17:43:30.668Z,27.79
2018-08-18T17:46:05.073Z,27.71
2018-08-18T17:48:42.835Z,27.63
2018-08-18T17:51:14.240Z,27.59
2018-08-18T17:53:54.868Z,27.52
2018-08-18T17:56:26.445Z,27.44
2018-08-18T17:59:02.724Z,27.36
2018-08-18T18:01:44.977Z,27.26
2018-08-18T18:04:15.117Z,27.09
2018-08-18T18:06:44.674Z,27.01
2018-08-18T18:09:14.678Z,26.91
2018-08-18T18:11:46.816Z,26.86
2018-08-18T18:14:19.011Z,26.77
2018-08-18T18:16:49.962Z,26.70
2018-08-18T18:19:21.697Z,26.56
2018-08-18T18:21:52.514Z,26.31
2018-08-18T18:24:33.986Z,26.39
2018-08-18T18:27:04.576Z,26.22
2018-08-18T18:29:36.137Z,26.16
2018-08-18T18:32:06.243Z,26.12
2018-08-18T18:34:36.549Z,26.04
2018-08-18T18:37:09.106Z,25.97
2018-08-18T18:39:51.983Z,25.81
2018-08-18T18:42:22.875Z,25.74
2018-08-18T18:44:53.771Z,25.65
2018-08-18T18:47:25.428Z,25.63
2018-08-18T18:49:57.710Z,25.38
2018-08-18T18:52:28.478Z,25.46
2018-08-18T18:54:59.751Z,25.39
2018-08-18T18:57:29.901Z,25.32
2018-08-18T19:00:01.921Z,25.29
2018-08-18T19:02:37.862Z,25.23
2018-08-18T19:05:21.318Z,25.13
2018-08-18T19:07:57.067Z,25.09
2018-08-18T19:10:27.705Z,25.03
2018-08-18T19:12:58.866Z,24.78
2018-08-18T19:15:30.671Z,24.98
2018-08-18T19:18:01.464Z,24.88
2018-08-18T19:20:32.491Z,24.84
2018-08-18T19:23:09.194Z,24.76
2018-08-18T19:25:40.527Z,24.62
2018-08-18T19:28:15.820Z,24.65
2018-08-18T19:30:45.742Z,24.52
2018-08-18T19:33:16.998Z,24.53
2018-08-18T19:35:50.688Z,24.51
2018-08-18T19:38:23.137Z,24.48
2018-08-18T19:40:55.297Z,24.46
2018-08-18T19:43:28.313Z,24.33
2018-08-18T19:46:04.421Z,24.35
2018-08-18T19:48:42.459Z,24.33
2018-08-18T19:51:13.820Z,24.27
2018-08-18T19:53:46.185Z,24.30
2018-08-18T19:56:15.917Z,24.30
2018-08-18T19:58:46.409Z,24.28
2018-08-18T20:01:19.722Z,24.30
2018-08-18T20:03:52.397Z,24.20
2018-08-18T20:06:24.830Z,24.18
2018-08-18T20:08:58.687Z,24.21
2018-08-18T20:11:31.311Z,24.11
2018-08-18T20:14:04.146Z,24.06
2018-08-18T20:16:35.546Z,24.04
2018-08-18T20:19:10.928Z,24.01
2018-08-18T20:21:41.064Z,23.99
2018-08-18T20:24:14.713Z,23.97
2018-08-18T20:26:45.766Z,23.82
2018-08-18T20:29:16.542Z,23.53
2018-08-18T20:32:01.807Z,23.56
2018-08-18T20:34:33.836Z,23.64
2018-08-18T20:37:04.865Z,23.65
2018-08-18T20:39:35.388Z,23.63
2018-08-18T20:42:06.231Z,23.69
2018-08-18T20:44:38.691Z,23.56
2018-08-18T20:47:09.141Z,23.44
2018-08-18T20:49:39.370Z,23.36
2018-08-18T20:52:11.135Z,23.30
2018-08-18T20:54:41.004Z,23.34
2018-08-18T20:57:11.578Z,23.49
2018-08-18T20:59:41.519Z,23.49
2018-08-18T21:02:12.339Z,23.55
2018-08-18T21:04:45.318Z,23.53
2018-08-18T21:07:14.885Z,23.48
2018-08-18T21:09:44.870Z,23.42
2018-08-18T21:12:15.313Z,23.42
2018-08-18T21:14:45.710Z,23.39
2018-08-18T21:17:20.665Z,23.42
2018-08-18T21:19:51.566Z,23.25
2018-08-18T21:22:22.225Z,23.30
2018-08-18T21:24:52.845Z,23.26
2018-08-18T21:27:23.414Z,23.26
2018-08-18T21:29:54.972Z,23.33
2018-08-18T21:32:25.651Z,23.33
2018-08-18T21:34:55.835Z,23.28
2018-08-18T21:37:25.747Z,23.27
2018-08-18T21:39:55.797Z,23.29
2018-08-18T21:42:25.351Z,23.33
2018-08-18T21:44:55.588Z,23.29
2018-08-18T21:47:25.759Z,23.25
2018-08-18T21:49:56.846Z,23.13
2018-08-18T21:52:27.568Z,22.99
2018-08-18T21:54:57.303Z,23.19
2018-08-18T21:57:28.414Z,23.14
2018-08-18T22:00:00.045Z,22.99
2018-08-18T22:02:43.056Z,22.88
2018-08-18T22:05:15.943Z,22.85
2018-08-18T22:07:51.285Z,22.82
2018-08-18T22:10:21.067Z,22.86
2018-08-18T22:12:51.583Z,22.85
2018-08-18T22:15:24.055Z,22.85
2018-08-18T22:17:58.089Z,22.84
2018-08-18T22:20:28.180Z,22.76
2018-08-18T22:22:57.836Z,22.56
2018-08-18T22:25:27.994Z,22.70
2018-08-18T22:27:57.998Z,22.64
2018-08-18T22:30:28.335Z,22.64
2018-08-18T22:32:59.143Z,22.63
2018-08-18T22:35:29.569Z,22.59
2018-08-18T22:37:59.467Z,22.63
2018-08-18T22:40:31.999Z,22.63
2018-08-18T22:43:03.148Z,22.67
2018-08-18T22:45:33.884Z,22.70
2018-08-18T22:48:04.385Z,22.67
2018-08-18T22:50:34.022Z,22.65
2018-08-18T22:53:04.816Z,22.61
2018-08-18T22:55:35.785Z,22.59
2018-08-18T22:58:05.979Z,22.43
2018-08-18T23:00:40.770Z,22.40
2018-08-18T23:03:10.997Z,22.40
2018-08-18T23:05:42.071Z,22.39
2018-08-18T23:08:13.985Z,22.39
2018-08-18T23:10:48.957Z,22.35
2018-08-18T23:13:25.097Z,22.27
2018-08-18T23:16:07.432Z,21.98
2018-08-18T23:18:53.596Z,21.95
2018-08-18T23:21:30.992Z,21.94
2018-08-18T23:24:25.518Z,21.93
2018-08-18T23:26:56.252Z,21.90
2018-08-18T23:29:27.031Z,21.83
2018-08-18T23:32:00.372Z,21.78
2018-08-18T23:34:33.796Z,21.91
2018-08-18T23:37:14.762Z,21.91
2018-08-18T23:39:49.107Z,21.83
2018-08-18T23:42:23.882Z,21.87
2018-08-18T23:44:57.170Z,21.83
2018-08-18T23:47:27.180Z,21.81
2018-08-18T23:49:57.286Z,21.77
2018-08-18T23:52:27.772Z,21.74
2018-08-18T23:54:58.682Z,21.70
2018-08-18T23:57:29.462Z,21.67
